Time;durP1;ratioP1;P1;durP2;ratioP2;P2;SDS_P1;SDS_P2;PMS_P1;PMS_P2;Temp;Humidity;BMP_temperature;BMP_pressure;BME280_temperature;BME280_humidity;BME280_pressure;Samples;Min_cycle;Max_cycle;Signal;HPM_P1;HPM_P2
2023/05/21 00:00:47;;;;;;;4.38;2.92;;;14.00;99.90;;;;;;5030384;28;20079;-85
2023/05/21 00:03:13;;;;;;;5.43;2.40;;;14.00;99.90;;;;;;5019535;28;20037;-84
2023/05/21 00:05:45;;;;;;;6.60;2.55;;;14.10;99.90;;;;;;5051512;28;20480;-83
2023/05/21 00:08:11;;;;;;;4.38;2.45;;;14.00;99.90;;;;;;5038241;28;20044;-84
2023/05/21 00:10:37;;;;;;;4.20;2.50;;;14.00;99.90;;;;;;5051793;28;20372;-85
2023/05/21 00:13:02;;;;;;;9.60;2.30;;;14.00;99.90;;;;;;5022587;28;20080;-84
2023/05/21 00:15:28;;;;;;;5.00;2.40;;;14.00;99.90;;;;;;5025064;28;21504;-83
2023/05/21 00:17:53;;;;;;;5.25;2.80;;;14.00;99.90;;;;;;5025579;28;20045;-84
2023/05/21 00:20:19;;;;;;;4.43;2.63;;;14.10;99.90;;;;;;5013361;28;20048;-84
2023/05/21 00:22:45;;;;;;;3.17;2.00;;;14.00;99.90;;;;;;5055002;28;20368;-84
2023/05/21 00:25:11;;;;;;;3.28;2.60;;;14.00;99.90;;;;;;5030944;28;20136;-85
2023/05/21 00:27:36;;;;;;;3.03;2.40;;;14.00;99.90;;;;;;5055441;28;20102;-83
2023/05/21 00:30:03;;;;;;;5.25;2.22;;;14.00;99.90;;;;;;5030183;28;20048;-86
2023/05/21 00:32:28;;;;;;;3.35;2.10;;;14.00;99.90;;;;;;5030293;28;20033;-84
2023/05/21 00:34:54;;;;;;;3.55;2.30;;;14.00;99.90;;;;;;5017265;28;20113;-84
2023/05/21 00:37:20;;;;;;;4.80;3.25;;;14.00;99.90;;;;;;5012195;28;20041;-83
2023/05/21 00:39:46;;;;;;;4.80;2.53;;;14.00;99.90;;;;;;5048077;28;20582;-83
2023/05/21 00:42:11;;;;;;;2.72;2.50;;;14.00;99.90;;;;;;5051580;28;20124;-83
2023/05/21 00:44:38;;;;;;;5.82;2.35;;;14.00;99.90;;;;;;5028969;28;20044;-83
2023/05/21 00:47:05;;;;;;;3.58;2.50;;;13.90;99.90;;;;;;5045944;28;20037;-83
2023/05/21 00:49:31;;;;;;;4.45;2.47;;;13.90;99.90;;;;;;5047863;28;20033;-84
2023/05/21 00:52:00;;;;;;;5.40;2.50;;;14.00;99.90;;;;;;5050124;28;20491;-83
2023/05/21 00:54:26;;;;;;;3.47;2.45;;;14.00;99.90;;;;;;5029058;28;20068;-83
2023/05/21 00:56:52;;;;;;;5.88;2.67;;;13.90;99.90;;;;;;5030111;28;20399;-84
2023/05/21 00:59:18;;;;;;;4.05;3.17;;;13.90;99.90;;;;;;5031990;28;20047;-83
2023/05/21 01:01:52;;;;;;;7.00;2.72;;;13.80;99.90;;;;;;5047928;28;20048;-83
2023/05/21 01:04:19;;;;;;;3.72;2.50;;;13.90;99.90;;;;;;5028361;28;20041;-83
2023/05/21 01:06:45;;;;;;;3.90;2.15;;;13.70;99.90;;;;;;5027785;28;20033;-82
2023/05/21 01:09:10;;;;;;;3.05;2.13;;;13.80;99.90;;;;;;5050530;28;20064;-83
2023/05/21 01:11:39;;;;;;;5.63;2.83;;;13.90;99.90;;;;;;5047718;28;20052;-83
2023/05/21 01:14:08;;;;;;;5.30;2.67;;;13.80;99.90;;;;;;5031716;28;20123;-83
2023/05/21 01:16:36;;;;;;;4.20;2.72;;;13.80;99.90;;;;;;5028688;28;20403;-82
2023/05/21 01:19:03;;;;;;;6.03;2.75;;;13.80;99.90;;;;;;5030785;28;20041;-82
2023/05/21 01:21:29;;;;;;;3.95;2.92;;;13.80;99.90;;;;;;5031013;28;20037;-83
2023/05/21 01:23:55;;;;;;;4.85;2.75;;;13.80;99.90;;;;;;5031016;28;20037;-82
2023/05/21 01:26:21;;;;;;;6.60;2.53;;;13.80;99.90;;;;;;5050390;28;20041;-83
2023/05/21 01:28:46;;;;;;;6.15;3.15;;;13.80;99.90;;;;;;5029166;28;20041;-83
2023/05/21 01:31:50;;;;;;;5.28;2.97;;;13.80;99.90;;;;;;5030636;28;20033;-83
2023/05/21 01:34:19;;;;;;;5.47;3.30;;;13.80;99.90;;;;;;5017052;28;20049;-83
2023/05/21 01:37:00;;;;;;;5.38;2.63;;;13.70;99.90;;;;;;5045940;28;20040;-83
2023/05/21 01:39:37;;;;;;;5.85;2.78;;;13.80;99.90;;;;;;5027684;28;20037;-82
2023/05/21 01:42:08;;;;;;;4.75;2.50;;;13.80;99.90;;;;;;5046748;28;20066;-82
2023/05/21 01:44:34;;;;;;;5.03;3.38;;;13.80;99.90;;;;;;5017439;28;20053;-83
2023/05/21 01:47:01;;;;;;;5.82;3.05;;;13.70;99.90;;;;;;5047558;28;20033;-83
2023/05/21 01:49:27;;;;;;;5.10;3.17;;;13.80;99.90;;;;;;5033540;28;20044;-83
2023/05/21 01:51:53;;;;;;;4.18;2.88;;;13.80;99.90;;;;;;5027878;28;20029;-83
2023/05/21 01:54:18;;;;;;;5.88;3.20;;;13.70;99.90;;;;;;5045677;28;20373;-82
2023/05/21 01:56:44;;;;;;;5.63;2.85;;;13.70;99.90;;;;;;5036578;28;20499;-83
2023/05/21 01:59:10;;;;;;;5.82;3.30;;;13.70;99.90;;;;;;5047711;28;20487;-81
2023/05/21 02:01:36;;;;;;;6.18;3.08;;;13.70;99.90;;;;;;5046956;28;20044;-82
2023/05/21 02:04:01;;;;;;;6.15;2.90;;;13.70;99.90;;;;;;5048325;28;20037;-82
2023/05/21 02:06:27;;;;;;;5.57;2.92;;;13.70;99.90;;;;;;5032109;28;20104;-83
2023/05/21 02:08:54;;;;;;;4.55;2.97;;;13.70;99.90;;;;;;5043338;28;20041;-83
2023/05/21 02:11:21;;;;;;;8.10;3.13;;;13.70;99.90;;;;;;5027015;28;20077;-83
2023/05/21 02:13:47;;;;;;;4.85;2.92;;;13.70;99.90;;;;;;5044385;28;20037;-82
2023/05/21 02:16:14;;;;;;;5.93;3.00;;;13.60;99.90;;;;;;5043325;28;20935;-83
2023/05/21 02:18:42;;;;;;;3.40;3.10;;;13.60;99.90;;;;;;5028568;28;20029;-83
2023/05/21 02:21:09;;;;;;;3.33;2.80;;;13.60;99.90;;;;;;5047066;28;20063;-83
2023/05/21 02:23:35;;;;;;;8.38;3.10;;;14.10;99.90;;;;;;5016467;28;20037;-83
2023/05/21 02:26:01;;;;;;;6.60;3.35;;;13.40;99.90;;;;;;5029039;28;20051;-83
2023/05/21 02:28:28;;;;;;;5.38;3.05;;;13.60;99.90;;;;;;5030536;28;20443;-82
2023/05/21 02:30:54;;;;;;;6.38;3.08;;;13.70;99.90;;;;;;5031578;28;20185;-83
2023/05/21 02:33:20;;;;;;;6.10;3.92;;;13.70;99.90;;;;;;5031006;28;20057;-83
2023/05/21 02:35:47;;;;;;;5.10;3.50;;;13.60;99.90;;;;;;5030380;28;20052;-83
2023/05/21 02:38:13;;;;;;;8.60;4.32;;;13.60;99.90;;;;;;5029507;28;20041;-83
2023/05/21 02:40:39;;;;;;;5.07;3.90;;;13.60;99.90;;;;;;5044734;28;20048;-83
2023/05/21 02:43:04;;;;;;;7.10;4.10;;;13.50;99.90;;;;;;5048380;28;20045;-83
2023/05/21 02:45:30;;;;;;;5.00;3.92;;;13.60;99.90;;;;;;5035087;28;20041;-83
2023/05/21 02:47:56;;;;;;;8.00;4.25;;;13.60;99.90;;;;;;5051040;28;20116;-83
2023/05/21 02:50:22;;;;;;;5.03;3.83;;;13.80;99.90;;;;;;5027707;28;20041;-83
2023/05/21 02:52:48;;;;;;;5.53;3.97;;;13.60;99.90;;;;;;5025588;28;20077;-83
2023/05/21 02:55:13;;;;;;;7.30;4.53;;;13.60;99.90;;;;;;5045329;28;20167;-82
2023/05/21 02:57:39;;;;;;;8.10;4.25;;;13.50;99.90;;;;;;5049406;28;20498;-82
2023/05/21 03:00:08;;;;;;;5.20;4.07;;;13.50;99.90;;;;;;5050514;28;20091;-82
2023/05/21 03:02:34;;;;;;;4.78;3.78;;;13.50;99.90;;;;;;5026725;28;20057;-83
2023/05/21 03:05:00;;;;;;;8.95;4.10;;;13.60;99.90;;;;;;5027112;28;20274;-83
2023/05/21 03:07:25;;;;;;;6.18;4.10;;;13.60;99.90;;;;;;5031990;28;20536;-84
2023/05/21 03:09:51;;;;;;;10.75;4.55;;;13.50;99.90;;;;;;5056568;28;20075;-83
2023/05/21 03:12:17;;;;;;;7.35;4.20;;;13.50;99.90;;;;;;5032542;28;20098;-83
2023/05/21 03:14:43;;;;;;;7.13;4.38;;;13.50;99.90;;;;;;5009057;28;20468;-83
2023/05/21 03:17:12;;;;;;;5.75;4.53;;;13.50;99.90;;;;;;5018792;28;20098;-83
2023/05/21 03:19:40;;;;;;;5.60;3.95;;;13.50;99.90;;;;;;5050073;28;20056;-83
2023/05/21 03:22:06;;;;;;;5.28;4.50;;;13.50;99.90;;;;;;5031335;28;20045;-84
2023/05/21 03:24:32;;;;;;;6.00;3.92;;;13.50;99.90;;;;;;5013086;28;20391;-82
2023/05/21 03:27:00;;;;;;;7.45;4.50;;;13.50;99.90;;;;;;5048788;28;20043;-83
2023/05/21 03:29:27;;;;;;;7.13;4.53;;;13.40;99.90;;;;;;5036542;28;20487;-83
2023/05/21 03:31:53;;;;;;;8.98;4.68;;;13.50;99.90;;;;;;5036784;28;20081;-84
2023/05/21 03:34:19;;;;;;;6.82;4.53;;;13.50;99.90;;;;;;5035024;28;20024;-82
2023/05/21 03:36:45;;;;;;;5.07;4.50;;;13.50;99.90;;;;;;5017615;28;20418;-83
2023/05/21 03:39:11;;;;;;;5.50;4.40;;;13.40;99.90;;;;;;5029402;28;20203;-84
2023/05/21 03:41:36;;;;;;;8.88;5.55;;;13.40;99.90;;;;;;5031516;28;20511;-83
2023/05/21 03:44:02;;;;;;;8.00;4.53;;;13.50;99.90;;;;;;5031586;28;20040;-83
2023/05/21 03:46:28;;;;;;;5.78;3.95;;;13.50;99.90;;;;;;5041048;28;20041;-82
2023/05/21 03:48:53;;;;;;;6.32;4.72;;;13.50;99.90;;;;;;5024978;28;20074;-83
2023/05/21 03:51:19;;;;;;;5.78;4.40;;;13.50;99.90;;;;;;5035290;28;20063;-82
2023/05/21 03:53:45;;;;;;;5.28;4.30;;;13.50;99.90;;;;;;5031333;28;20045;-83
2023/05/21 03:56:11;;;;;;;5.03;4.53;;;13.50;99.90;;;;;;5015605;28;20037;-83
2023/05/21 03:58:37;;;;;;;10.02;4.43;;;13.40;99.90;;;;;;5049960;28;20045;-83
2023/05/21 04:01:03;;;;;;;9.43;4.82;;;13.50;99.90;;;;;;5012495;28;20437;-83
2023/05/21 04:03:31;;;;;;;4.93;3.65;;;13.50;99.90;;;;;;5029075;28;20492;-83
2023/05/21 04:05:57;;;;;;;7.00;4.70;;;13.50;99.90;;;;;;5030593;28;20033;-83
2023/05/21 04:08:22;;;;;;;5.60;4.40;;;13.50;99.90;;;;;;5033645;28;20119;-83
2023/05/21 04:10:48;;;;;;;7.28;4.75;;;13.50;99.90;;;;;;5018836;28;20055;-83
2023/05/21 04:13:13;;;;;;;7.88;4.45;;;13.50;99.90;;;;;;5045318;28;20112;-82
2023/05/21 04:15:39;;;;;;;7.13;4.75;;;13.50;99.90;;;;;;5034089;28;20037;-83
2023/05/21 04:18:06;;;;;;;6.40;4.40;;;13.40;99.90;;;;;;5044012;28;20036;-82
2023/05/21 04:20:31;;;;;;;8.73;4.88;;;13.50;99.90;;;;;;5026701;28;20053;-82
2023/05/21 04:22:57;;;;;;;7.05;5.00;;;13.50;99.90;;;;;;5027667;28;20049;-82
2023/05/21 04:25:22;;;;;;;8.40;4.32;;;13.50;99.90;;;;;;5049567;28;20044;-84
2023/05/21 04:27:48;;;;;;;5.55;3.67;;;13.50;99.90;;;;;;5017503;28;20119;-83
2023/05/21 04:30:14;;;;;;;4.85;3.65;;;13.50;99.90;;;;;;5016896;28;20035;-83
2023/05/21 04:32:40;;;;;;;9.40;5.05;;;13.60;99.90;;;;;;5046105;28;20893;-83
2023/05/21 04:35:07;;;;;;;6.05;4.22;;;13.60;99.90;;;;;;5057038;28;20040;-83
2023/05/21 04:37:33;;;;;;;6.72;4.60;;;13.50;99.90;;;;;;5031527;28;20412;-83
2023/05/21 04:40:00;;;;;;;8.63;4.47;;;13.60;99.90;;;;;;5050726;28;20040;-83
2023/05/21 04:42:26;;;;;;;6.40;4.45;;;13.70;99.90;;;;;;5015014;28;20171;-82
2023/05/21 04:44:54;;;;;;;6.28;3.78;;;13.60;99.90;;;;;;5013780;28;20127;-83
2023/05/21 04:47:20;;;;;;;4.85;4.35;;;13.70;99.90;;;;;;5048317;28;20068;-82
2023/05/21 04:49:45;;;;;;;7.22;4.20;;;13.60;99.90;;;;;;5033991;28;20041;-83
2023/05/21 04:52:11;;;;;;;6.85;4.10;;;13.70;99.90;;;;;;5048449;28;20037;-83
2023/05/21 04:54:37;;;;;;;7.20;4.63;;;13.70;99.90;;;;;;5029403;28;20044;-82
2023/05/21 04:57:05;;;;;;;8.15;5.05;;;13.70;99.90;;;;;;5026867;28;20045;-83
2023/05/21 04:59:31;;;;;;;7.13;3.90;;;13.70;99.90;;;;;;5012933;28;20056;-82
2023/05/21 05:01:56;;;;;;;8.80;4.30;;;13.70;99.90;;;;;;5028145;28;20041;-82
2023/05/21 05:04:22;;;;;;;8.90;4.50;;;13.80;99.90;;;;;;5029079;28;20086;-83
2023/05/21 05:06:48;;;;;;;4.75;3.60;;;13.80;99.90;;;;;;5030962;28;20033;-83
2023/05/21 05:09:14;;;;;;;6.38;4.18;;;13.80;99.90;;;;;;5030322;28;20033;-82
2023/05/21 05:11:40;;;;;;;7.10;4.45;;;13.90;99.90;;;;;;5028530;28;20059;-83
2023/05/21 05:14:06;;;;;;;4.03;3.50;;;13.80;99.90;;;;;;5049676;28;20116;-83
2023/05/21 05:16:32;;;;;;;6.30;4.20;;;13.80;99.90;;;;;;5032862;28;20124;-82
2023/05/21 05:18:58;;;;;;;6.43;3.72;;;13.70;99.90;;;;;;5047417;28;20047;-82
2023/05/21 05:21:24;;;;;;;10.30;4.35;;;13.70;99.90;;;;;;5046755;28;20130;-83
2023/05/21 05:23:50;;;;;;;9.73;4.20;;;13.70;99.90;;;;;;5027440;28;20040;-83
2023/05/21 05:26:15;;;;;;;6.78;3.67;;;13.70;99.90;;;;;;5025388;28;20037;-83
2023/05/21 05:28:41;;;;;;;7.55;3.83;;;13.70;99.90;;;;;;5029545;28;20044;-83
2023/05/21 05:31:07;;;;;;;4.85;3.70;;;13.70;99.90;;;;;;5053013;28;20033;-83
2023/05/21 05:33:33;;;;;;;5.03;3.80;;;13.80;99.90;;;;;;5046146;28;20047;-83
2023/05/21 05:35:58;;;;;;;5.13;3.92;;;13.80;99.90;;;;;;5029886;28;20033;-83
2023/05/21 05:38:25;;;;;;;10.20;4.95;;;13.80;99.90;;;;;;5049329;28;20075;-82
2023/05/21 05:40:50;;;;;;;5.40;3.35;;;13.90;99.90;;;;;;5013643;28;20775;-83
2023/05/21 05:43:16;;;;;;;4.90;3.55;;;13.90;99.90;;;;;;5029182;28;20033;-82
2023/05/21 05:45:42;;;;;;;6.65;4.28;;;13.90;99.90;;;;;;5046569;28;20044;-82
2023/05/21 05:48:07;;;;;;;7.75;3.65;;;14.00;99.90;;;;;;5014660;28;20050;-82
2023/05/21 05:50:33;;;;;;;4.63;3.47;;;14.10;99.90;;;;;;5052281;28;20470;-83
2023/05/21 05:52:58;;;;;;;5.10;3.90;;;14.10;99.90;;;;;;5029721;28;20472;-82
2023/05/21 05:55:25;;;;;;;8.73;4.40;;;14.20;99.90;;;;;;5027394;28;20045;-83
2023/05/21 05:57:51;;;;;;;6.07;3.50;;;14.20;99.90;;;;;;5046420;28;20041;-83
2023/05/21 06:00:17;;;;;;;6.20;3.60;;;14.30;99.90;;;;;;5045326;28;20041;-83
2023/05/21 06:02:42;;;;;;;6.78;4.13;;;14.30;99.90;;;;;;5031911;28;20130;-82
2023/05/21 06:05:09;;;;;;;6.72;3.78;;;14.40;99.90;;;;;;5029226;28;20032;-83
2023/05/21 06:07:37;;;;;;;7.25;3.85;;;14.50;99.90;;;;;;5026599;28;20053;-84
2023/05/21 06:10:04;;;;;;;10.43;4.10;;;14.50;99.90;;;;;;5043355;28;20029;-82
2023/05/21 06:12:30;;;;;;;6.63;3.38;;;14.60;99.90;;;;;;5046437;28;20045;-83
2023/05/21 06:14:55;;;;;;;6.10;3.35;;;14.60;99.90;;;;;;5023721;28;20052;-82
2023/05/21 06:17:21;;;;;;;6.93;3.70;;;14.60;99.90;;;;;;5029292;28;20056;-81
2023/05/21 06:19:46;;;;;;;5.10;3.90;;;14.60;99.90;;;;;;5047260;28;20094;-82
2023/05/21 06:22:12;;;;;;;11.55;3.38;;;14.60;99.90;;;;;;5042478;28;20040;-81
2023/05/21 06:24:37;;;;;;;5.63;3.80;;;14.70;99.90;;;;;;5024604;28;20044;-81
2023/05/21 06:27:03;;;;;;;9.73;3.72;;;15.20;99.90;;;;;;5023832;28;20040;-82
2023/05/21 06:29:29;;;;;;;6.55;3.10;;;14.70;99.90;;;;;;5027771;28;20075;-82
2023/05/21 06:31:55;;;;;;;9.77;3.25;;;14.80;99.90;;;;;;5030331;28;20033;-82
2023/05/21 06:34:22;;;;;;;4.28;3.45;;;14.80;99.90;;;;;;5044014;28;20021;-85
2023/05/21 06:36:48;;;;;;;7.03;3.25;;;14.90;99.90;;;;;;5024087;28;20045;-82
2023/05/21 06:39:14;;;;;;;6.10;2.90;;;14.90;99.90;;;;;;5031391;28;20118;-83
2023/05/21 06:42:27;;;;;;;7.90;3.55;;;15.00;99.90;;;;;;5027827;28;20053;-83
2023/05/21 06:44:52;;;;;;;8.45;3.53;;;15.10;99.90;;;;;;5028971;28;20074;-82
2023/05/21 06:47:18;;;;;;;7.38;3.97;;;15.10;99.90;;;;;;5009465;28;20535;-81
2023/05/21 06:49:43;;;;;;;5.53;3.63;;;15.10;99.90;;;;;;5045851;28;20044;-83
2023/05/21 06:52:10;;;;;;;4.55;2.60;;;15.20;99.90;;;;;;5049752;28;20052;-82
2023/05/21 06:54:35;;;;;;;4.90;2.97;;;15.20;99.90;;;;;;5027581;28;20091;-81
2023/05/21 06:57:01;;;;;;;6.53;3.05;;;15.20;99.90;;;;;;5027338;28;20045;-82
2023/05/21 06:59:27;;;;;;;5.55;2.63;;;15.30;99.90;;;;;;5045330;28;20041;-83
2023/05/21 07:01:52;;;;;;;4.63;2.92;;;15.30;99.90;;;;;;5008921;28;20064;-81
2023/05/21 07:04:18;;;;;;;10.60;3.20;;;15.30;99.90;;;;;;5047938;28;20072;-84
2023/05/21 07:06:43;;;;;;;6.85;2.90;;;15.40;99.90;;;;;;5030601;28;20076;-85
2023/05/21 07:09:09;;;;;;;5.47;3.05;;;15.50;99.90;;;;;;5046216;28;20156;-84
2023/05/21 07:11:35;;;;;;;5.47;3.35;;;15.80;99.90;;;;;;5005117;28;20049;-82
2023/05/21 07:14:01;;;;;;;8.82;3.65;;;15.50;99.90;;;;;;5009649;28;20029;-83
2023/05/21 07:16:27;;;;;;;7.57;3.13;;;15.70;99.90;;;;;;5029192;28;20045;-83
2023/05/21 07:18:53;;;;;;;4.63;3.05;;;15.70;99.90;;;;;;5029924;28;20065;-84
2023/05/21 07:21:18;;;;;;;11.50;4.03;;;15.70;99.90;;;;;;5012269;28;20137;-84
2023/05/21 07:23:44;;;;;;;4.10;2.78;;;15.70;99.90;;;;;;5044095;28;20048;-80
2023/05/21 07:26:10;;;;;;;6.75;3.47;;;15.80;99.90;;;;;;5030604;28;20190;-82
2023/05/21 07:28:36;;;;;;;7.50;3.53;;;15.80;99.90;;;;;;5037871;28;20041;-82
2023/05/21 07:31:01;;;;;;;8.95;3.25;;;15.90;99.90;;;;;;5045531;28;20114;-82
2023/05/21 07:33:27;;;;;;;4.25;3.33;;;15.90;99.90;;;;;;5051503;28;20058;-82
2023/05/21 07:35:53;;;;;;;6.22;3.67;;;15.90;99.90;;;;;;5035358;28;20098;-83
2023/05/21 07:38:18;;;;;;;5.50;3.10;;;16.00;99.90;;;;;;5035960;28;20107;-82
2023/05/21 07:40:44;;;;;;;8.32;3.88;;;16.10;99.90;;;;;;5050963;28;20056;-82
2023/05/21 07:43:09;;;;;;;4.57;3.15;;;16.20;99.90;;;;;;5036329;28;20055;-81
2023/05/21 07:45:35;;;;;;;6.40;3.33;;;16.30;99.90;;;;;;5038632;28;20056;-82
2023/05/21 07:48:01;;;;;;;5.85;4.38;;;16.30;99.90;;;;;;5020995;28;20045;-81
2023/05/21 07:50:26;;;;;;;5.90;3.83;;;16.50;99.90;;;;;;5037478;28;20125;-80
2023/05/21 07:52:52;;;;;;;6.80;4.10;;;16.60;99.90;;;;;;5049135;28;20501;-81
2023/05/21 07:55:18;;;;;;;8.40;3.50;;;16.70;99.90;;;;;;5034129;28;20752;-82
2023/05/21 07:57:44;;;;;;;6.63;3.80;;;16.80;99.90;;;;;;5053845;28;20060;-82
2023/05/21 08:00:13;;;;;;;9.57;3.70;;;16.90;99.90;;;;;;5051708;28;20065;-82
2023/05/21 08:02:38;;;;;;;7.70;4.18;;;16.90;99.90;;;;;;5038293;28;20037;-82
2023/05/21 08:05:04;;;;;;;6.90;3.65;;;16.90;99.90;;;;;;5036819;28;20041;-82
2023/05/21 08:07:31;;;;;;;4.95;3.15;;;16.90;99.90;;;;;;5056427;28;20238;-81
2023/05/21 08:09:57;;;;;;;7.63;4.00;;;17.00;99.90;;;;;;5050504;28;20091;-82
2023/05/21 08:12:23;;;;;;;5.97;3.83;;;17.00;99.90;;;;;;5030070;28;20041;-82
2023/05/21 08:14:48;;;;;;;5.30;4.00;;;17.00;99.90;;;;;;5031323;28;20048;-83
2023/05/21 08:17:15;;;;;;;6.90;3.53;;;17.10;99.90;;;;;;5031790;28;20040;-83
2023/05/21 08:19:40;;;;;;;9.43;4.32;;;17.20;99.90;;;;;;5041041;28;20041;-82
2023/05/21 08:22:07;;;;;;;4.78;3.30;;;17.20;99.90;;;;;;5050191;28;20044;-83
2023/05/21 08:24:36;;;;;;;5.50;3.80;;;17.20;99.90;;;;;;5016643;28;20629;-83
2023/05/21 08:27:14;;;;;;;6.75;4.07;;;17.40;99.90;;;;;;5028366;28;20063;-82
2023/05/21 08:29:42;;;;;;;5.30;3.58;;;17.50;99.90;;;;;;5020201;28;20034;-82
2023/05/21 08:32:17;;;;;;;6.68;4.25;;;17.60;99.90;;;;;;5040686;28;20721;-85
2023/05/21 08:34:43;;;;;;;5.43;3.67;;;17.80;99.90;;;;;;5030208;28;20037;-84
2023/05/21 08:37:08;;;;;;;9.27;3.40;;;17.80;99.90;;;;;;5048890;28;20046;-85
2023/05/21 08:39:34;;;;;;;6.05;3.50;;;18.00;99.90;;;;;;5024078;28;20048;-84
2023/05/21 08:42:10;;;;;;;5.53;4.07;;;18.30;99.90;;;;;;5046616;28;20041;-86
2023/05/21 08:44:47;;;;;;;5.75;3.63;;;18.30;99.90;;;;;;5021857;28;20044;-86
2023/05/21 08:48:01;;;;;;;9.05;4.07;;;18.40;99.90;;;;;;5017943;28;20097;-84
2023/05/21 08:50:46;;;;;;;4.95;4.00;;;18.50;99.90;;;;;;5006779;28;20045;-82
2023/05/21 08:53:13;;;;;;;5.00;3.65;;;18.60;99.90;;;;;;5002531;28;21481;-83
2023/05/21 08:55:41;;;;;;;6.85;4.22;;;18.50;99.90;;;;;;5005245;28;20042;-83
2023/05/21 08:58:07;;;;;;;7.78;4.00;;;18.50;99.90;;;;;;5049082;28;20036;-81
2023/05/21 09:00:32;;;;;;;5.68;3.75;;;19.10;99.90;;;;;;5055654;28;20041;-82
2023/05/21 09:03:00;;;;;;;7.38;4.50;;;18.50;99.90;;;;;;5048879;28;20052;-82
2023/05/21 09:05:27;;;;;;;8.68;3.67;;;18.60;99.90;;;;;;5018074;28;20045;-83
2023/05/21 09:08:07;;;;;;;7.78;3.63;;;18.50;99.90;;;;;;5026361;28;20051;-85
2023/05/21 09:10:37;;;;;;;8.05;4.07;;;18.60;99.90;;;;;;5009780;28;20116;-86
2023/05/21 09:13:03;;;;;;;4.07;3.60;;;18.40;99.90;;;;;;5016968;28;20045;-85
2023/05/21 09:15:31;;;;;;;7.28;4.53;;;18.50;99.90;;;;;;5030776;28;20077;-84
2023/05/21 09:17:56;;;;;;;5.68;3.70;;;18.30;99.90;;;;;;5028734;28;20052;-82
2023/05/21 09:20:28;;;;;;;7.45;3.95;;;18.20;99.90;;;;;;5009508;28;20048;-84
2023/05/21 09:22:54;;;;;;;9.85;4.38;;;18.30;99.90;;;;;;5038882;28;20049;-83
2023/05/21 09:25:29;;;;;;;5.93;4.22;;;18.30;99.90;;;;;;5048199;28;20095;-84
2023/05/21 09:27:57;;;;;;;5.70;3.83;;;18.50;99.90;;;;;;5014979;28;20139;-84
2023/05/21 09:30:23;;;;;;;6.95;3.60;;;18.50;99.90;;;;;;5032132;28;20050;-86
2023/05/21 09:32:55;;;;;;;5.88;4.18;;;18.50;99.90;;;;;;5018513;28;20055;-84
2023/05/21 09:35:21;;;;;;;6.95;3.95;;;18.50;99.90;;;;;;5014087;28;20555;-85
2023/05/21 09:37:48;;;;;;;4.60;3.40;;;18.70;99.90;;;;;;5015360;28;20141;-84
2023/05/21 09:40:15;;;;;;;13.43;4.40;;;18.60;99.90;;;;;;5022614;28;20534;-84
2023/05/21 09:42:52;;;;;;;7.05;3.85;;;18.60;99.90;;;;;;5016965;28;20534;-82
2023/05/21 09:45:25;;;;;;;5.28;3.63;;;18.70;99.90;;;;;;5019048;28;20110;-83
2023/05/21 09:47:52;;;;;;;8.88;3.70;;;18.80;99.90;;;;;;5039911;28;20053;-84
2023/05/21 09:50:26;;;;;;;6.68;3.90;;;18.80;99.90;;;;;;5018824;28;20037;-84
2023/05/21 09:52:54;;;;;;;7.55;4.80;;;18.80;99.90;;;;;;5028836;28;20049;-84
2023/05/21 09:55:22;;;;;;;6.28;3.50;;;18.90;99.90;;;;;;5029660;28;20086;-84
2023/05/21 09:57:48;;;;;;;9.18;3.72;;;19.30;99.90;;;;;;5014390;28;20680;-83
2023/05/21 10:00:22;;;;;;;6.15;3.58;;;19.30;99.90;;;;;;5015958;28;20060;-84
2023/05/21 10:02:53;;;;;;;4.53;3.67;;;19.40;99.90;;;;;;5022256;28;20038;-82
2023/05/21 10:05:19;;;;;;;6.22;4.03;;;19.50;99.90;;;;;;5024982;28;20056;-84
2023/05/21 10:07:52;;;;;;;8.43;4.22;;;19.60;99.90;;;;;;5051894;28;20033;-84
2023/05/21 10:10:22;;;;;;;5.82;4.10;;;19.60;99.90;;;;;;5012789;28;20045;-84
2023/05/21 10:12:54;;;;;;;5.70;3.80;;;19.90;99.90;;;;;;5032587;28;20086;-83
2023/05/21 10:15:23;;;;;;;8.85;4.20;;;19.90;99.90;;;;;;5044997;28;20045;-85
2023/05/21 10:17:49;;;;;;;5.78;3.90;;;20.30;99.90;;;;;;5031200;28;20549;-83
2023/05/21 10:20:16;;;;;;;6.50;4.13;;;20.00;99.90;;;;;;5029601;28;20048;-84
2023/05/21 10:22:45;;;;;;;7.88;4.25;;;20.10;99.90;;;;;;5021711;28;20041;-84
2023/05/21 10:25:12;;;;;;;7.75;4.05;;;20.40;99.90;;;;;;5042680;28;20040;-84
2023/05/21 10:27:38;;;;;;;9.18;4.30;;;20.40;99.90;;;;;;5021068;28;20633;-83
2023/05/21 10:30:05;;;;;;;6.25;4.47;;;20.60;99.90;;;;;;5048962;28;20127;-83
2023/05/21 10:32:31;;;;;;;6.45;4.82;;;20.70;99.90;;;;;;5055299;28;20069;-82
2023/05/21 10:34:58;;;;;;;8.90;4.47;;;20.70;99.90;;;;;;5036195;28;20922;-82
2023/05/21 10:37:25;;;;;;;6.63;4.45;;;20.70;99.90;;;;;;5031097;28;20084;-82
2023/05/21 10:39:51;;;;;;;4.55;3.97;;;20.90;99.90;;;;;;5010122;28;20052;-82
2023/05/21 10:42:22;;;;;;;5.80;4.38;;;20.90;99.90;;;;;;5026043;28;20045;-82
2023/05/21 10:44:48;;;;;;;7.63;5.60;;;20.90;99.90;;;;;;5021563;28;20044;-82
2023/05/21 10:47:48;;;;;;;10.23;5.28;;;21.00;99.90;;;;;;5039219;28;20053;-81
2023/05/21 10:50:39;;;;;;;6.28;5.35;;;21.10;99.90;;;;;;5011690;28;20081;-82
2023/05/21 10:53:23;;;;;;;8.02;6.10;;;21.20;99.90;;;;;;5008914;28;20527;-81
2023/05/21 10:56:12;;;;;;;6.63;5.07;;;21.10;99.90;;;;;;5040889;28;20052;-82
2023/05/21 10:58:46;;;;;;;8.90;5.38;;;21.10;99.90;;;;;;5023511;28;20041;-81
2023/05/21 11:01:12;;;;;;;10.73;6.30;;;21.00;99.90;;;;;;5030909;28;20520;-82
2023/05/21 11:03:38;;;;;;;9.90;5.53;;;20.90;99.90;;;;;;5005448;28;20056;-83
2023/05/21 11:06:05;;;;;;;7.57;5.13;;;20.90;99.90;;;;;;5029138;28;20124;-83
2023/05/21 11:08:52;;;;;;;;;;;21.00;99.90;;;;;;5040978;28;21099;-81
2023/05/21 11:11:50;;;;;;;9.77;5.75;;;21.10;99.90;;;;;;5052723;28;20028;-82
2023/05/21 11:14:31;;;;;;;6.15;4.72;;;21.20;99.90;;;;;;5051443;28;20029;-83
2023/05/21 11:17:37;;;;;;;8.45;5.70;;;21.20;99.90;;;;;;5017703;28;20037;-84
2023/05/21 11:20:15;;;;;;;8.05;6.20;;;21.30;99.90;;;;;;5038094;28;20072;-83
2023/05/21 11:23:03;;;;;;;11.80;6.45;;;21.30;99.90;;;;;;5036685;28;20041;-84
2023/05/21 11:25:32;;;;;;;11.00;5.07;;;21.30;99.90;;;;;;5029629;28;20052;-83
2023/05/21 11:28:05;;;;;;;7.40;6.00;;;21.40;99.90;;;;;;5022880;28;20192;-85
2023/05/21 11:30:32;;;;;;;12.00;5.75;;;21.40;99.90;;;;;;5042956;28;20041;-84
2023/05/21 11:33:14;;;;;;;6.75;4.75;;;21.40;99.90;;;;;;5049634;28;20060;-84
2023/05/21 11:35:59;;;;;;;7.13;5.88;;;21.40;99.90;;;;;;5018284;28;20056;-85
2023/05/21 11:42:35;;;;;;;6.85;5.45;;;21.60;99.90;;;;;;5002992;28;20065;-85
2023/05/21 11:45:10;;;;;;;7.80;6.70;;;21.80;99.90;;;;;;5032950;28;20103;-82
2023/05/21 11:47:36;;;;;;;8.27;5.47;;;21.80;99.90;;;;;;5047131;28;20045;-82
2023/05/21 11:50:30;;;;;;;6.82;6.13;;;21.90;99.90;;;;;;5054000;28;20065;-83
2023/05/21 11:53:29;;;;;;;10.18;6.20;;;21.90;99.90;;;;;;5060660;28;20060;-84
2023/05/21 12:30:18;;;;;;;8.93;7.10;;;22.40;99.90;;;;;;5000701;28;20050;-82
2023/05/21 12:32:54;;;;;;;11.45;7.32;;;22.50;99.90;;;;;;4968293;28;20046;-84
2023/05/21 12:36:07;;;;;;;10.00;8.18;;;22.50;99.90;;;;;;4968098;29;20079;-84
2023/05/21 12:39:00;;;;;;;10.27;7.47;;;22.50;99.90;;;;;;4957111;29;20070;-84
2023/05/21 12:41:26;;;;;;;9.98;7.60;;;22.50;99.90;;;;;;4897062;29;20062;-84
2023/05/21 12:43:52;;;;;;;9.90;8.75;;;22.60;99.90;;;;;;4949123;28;20087;-82
2023/05/21 12:46:18;;;;;;;12.18;8.30;;;22.80;99.90;;;;;;5011089;28;20050;-84
2023/05/21 12:48:54;;;;;;;8.70;7.22;;;22.70;99.90;;;;;;5066646;28;20424;-82
2023/05/21 12:51:19;;;;;;;12.75;8.63;;;23.10;99.90;;;;;;5048839;28;20040;-82
2023/05/21 12:53:46;;;;;;;8.48;7.57;;;22.80;99.90;;;;;;5043094;28;20024;-82
2023/05/21 12:56:14;;;;;;;8.90;7.75;;;22.60;99.90;;;;;;5023427;28;20123;-84
2023/05/21 12:58:41;;;;;;;9.38;8.25;;;22.70;99.90;;;;;;5019075;28;20040;-82
2023/05/21 13:01:06;;;;;;;8.90;7.55;;;22.50;99.90;;;;;;5021350;28;20044;-81
2023/05/21 13:03:32;;;;;;;12.27;9.18;;;23.10;99.90;;;;;;5036070;28;20036;-82
2023/05/21 13:05:59;;;;;;;11.35;9.07;;;22.10;99.90;;;;;;5052016;28;20039;-82
2023/05/21 13:08:25;;;;;;;11.85;8.45;;;22.00;99.90;;;;;;5045409;28;20033;-82
2023/05/21 13:10:51;;;;;;;10.88;8.45;;;22.20;99.90;;;;;;5015063;28;20033;-82
2023/05/21 13:13:18;;;;;;;12.30;8.40;;;22.20;99.90;;;;;;5037752;28;20063;-83
2023/05/21 13:15:45;;;;;;;12.20;9.18;;;22.30;99.90;;;;;;5032189;28;20041;-82
2023/05/21 13:18:11;;;;;;;10.80;9.70;;;22.30;99.90;;;;;;5036135;28;20535;-83
2023/05/21 13:20:38;;;;;;;13.30;9.27;;;22.30;99.90;;;;;;5025268;28;20055;-83
2023/05/21 13:23:04;;;;;;;9.15;8.20;;;22.10;99.90;;;;;;5025704;28;20064;-83
2023/05/21 13:25:31;;;;;;;10.88;8.38;;;22.20;99.90;;;;;;5042376;28;20040;-85
2023/05/21 13:28:03;;;;;;;13.88;10.18;;;22.30;99.90;;;;;;5043180;28;20138;-84
2023/05/21 13:30:29;;;;;;;10.05;8.75;;;22.30;99.90;;;;;;5009485;28;20064;-83